FMEP/ZSE METAR and TAF weather

Enter ICAO airport designator
Station Type Date Time Source
FMEP METAR 2019/10/20 19:00 UTC NOAA

FMEP 201900Z AUTO 11003KT 080V140 CAVOK 21/15 Q1018


Station Type Date Time Source
FMEP Decoded METAR 2019/10/20 19:00 UTC NOAA

Saint-Pierre, Reunion (FMEP) 21-20S 055-29E 53M
Oct 20, 2019 - 03:00 PM EDT / 2019.10.20 1900 UTC
Wind: from the ESE (110 degrees) at 3 MPH (3 KT) (direction variable):0
Visibility: greater than 7 mile(s):0
Temperature: 69 F (21 C)
Dew Point: 59 F (15 C)
Relative Humidity: 68%
Pressure (altimeter): 30.06 in. Hg (1018 hPa)
ob: FMEP 201900Z AUTO 11003KT 080V140 CAVOK 21/15 Q1018
cycle: 19

Station Type Date Time Source
FMEP TAF 2019/05/21 06:00 UTC NOAA

TAF FMEP 210500Z 2106/2115 18005KT 9999 FEW023 BKN210

Example: see airport list